Weather forecast for Cergowa

Poland, 671 m
N49.532, E21.719


Sounding

Red line — air temperature ˚C.
Blue line — thermal bubble temperature ˚C.
Green line — dew point temperature ˚C.
Wind speed is in meters per second.

Table forecast

GFS 0.25˚ model

temp. wind gust humid. clouds prec. press. hpbl
Tue18 00:00 13 184.0 s 2 5 82 0 0.0 1023 111
03:00 12 189.0 s 3 3 86 0 0.0 1023 87
06:00 11 187.0 s 2 3 89 0 0.0 1023 56
09:00 14 185.0 s 2 3 79 0 0.0 1023 137
12:00 20 188.0 s 3 5 54 91 0.0 1023 565
15:00 23 189.0 s 3 4 45 95 0.0 1022 1071
18:00 21 186.0 s 3 6 55 98 0.0 1021 779
21:00 15 175.0 s 3 6 75 86 0.0 1022 115
 
Wed19 00:00 13 181.0 s 3 6 81 75 0.0 1022 145
03:00 12 184.0 s 3 6 84 61 0.0 1023 131
06:00 11 190.0 s 3 6 87 41 0.0 1023 119
09:00 14 194.0 ssw 3 7 76 20 0.0 1023 228
12:00 21 206.0 ssw 4 7 49 46 0.0 1022 693
15:00 24 208.0 ssw 4 6 41 36 0.0 1022 1410
18:00 23 193.0 ssw 2 5 52 0 0.0 1021 508
21:00 16 175.0 s 2 3 73 0 0.0 1022 52
 
Thu20 00:00 14 183.0 s 2 3 79 0 0.0 1023 39
03:00 13 190.0 s 2 2 84 0 0.0 1023 27
06:00 12 187.0 s 1 2 88 0 0.0 1022 23
09:00 15 175.0 s 1 2 77 0 0.0 1023 81
12:00 23 199.0 ssw 2 3 49 0 0.0 1022 592
15:00 25 218.0 sw 2 3 39 0 0.0 1021 2055
18:00 23 200.0 ssw 2 3 51 71 0.0 1020 129
21:00 17 172.0 s 2 2 67 39 0.0 1021 23
 
Fri21 00:00 15 174.0 s 2 2 71 0 0.0 1020 27
03:00 14 176.0 s 2 2 75 0 0.0 1020 32
06:00 13 176.0 s 2 3 75 0 0.0 1019 58
09:00 15 183.0 s 3 8 69 0 0.0 1019 272
12:00 22 196.0 ssw 5 8 48 0 0.0 1017 711
15:00 24 199.0 ssw 5 8 42 0 0.0 1016 1520
18:00 23 190.0 s 4 8 47 0 0.0 1014 1195
21:00 16 170.0 s 3 7 66 0 0.0 1014 176
 
Sat22 00:00 15 179.0 s 3 13 67 0 0.0 1013 322
03:00 15 185.0 s 4 14 66 49 0.0 1012 401
06:00 15 192.0 ssw 4 13 64 100 0.0 1013 383
09:00 13 314.0 nw 7 14 69 100 0.0 1016 1167
12:00 10 320.0 nw 5 10 94 100 2.6 1019 890
15:00 8 329.0 nnw 4 10 95 100 7.0 1020 693
18:00 8 319.0 nw 4 10 89 100 1.9 1021 900
21:00 6 279.0 w 1 2 94 68 1.9 1023 22
 

0.018 s